createdAt,value
2019-03-23T00:02:20.545Z,13.80
2019-03-23T00:04:48.368Z,11.27
2019-03-23T00:07:17.176Z,12.30
2019-03-23T00:09:45.019Z,11.93
2019-03-23T00:12:12.931Z,11.80
2019-03-23T00:14:41.012Z,12.07
2019-03-23T00:17:10.484Z,12.77
2019-03-23T00:19:38.447Z,11.97
2019-03-23T00:22:06.850Z,11.60
2019-03-23T00:24:34.785Z,14.43
2019-03-23T00:27:03.263Z,15.07
2019-03-23T00:29:31.352Z,14.10
2019-03-23T00:31:59.744Z,11.97
2019-03-23T00:34:27.539Z,12.57
2019-03-23T00:36:55.760Z,12.43
2019-03-23T00:39:23.701Z,13.67
2019-03-23T00:41:51.274Z,12.43
2019-03-23T00:44:19.518Z,12.93
2019-03-23T00:46:48.358Z,12.47
2019-03-23T00:49:16.204Z,11.90
2019-03-23T00:51:44.448Z,12.73
2019-03-23T00:54:12.224Z,13.43
2019-03-23T00:56:40.638Z,13.67
2019-03-23T00:59:09.837Z,14.73
2019-03-23T01:01:37.447Z,13.27
2019-03-23T01:04:06.727Z,14.17
2019-03-23T01:06:34.889Z,13.67
2019-03-23T01:09:04.235Z,14.53
2019-03-23T01:11:32.147Z,14.93
2019-03-23T01:14:00.038Z,14.13
2019-03-23T01:16:28.059Z,14.80
2019-03-23T01:18:56.009Z,13.83
2019-03-23T01:21:23.905Z,14.33
2019-03-23T01:23:51.792Z,12.63
2019-03-23T01:26:19.429Z,14.10
2019-03-23T01:28:46.903Z,14.60
2019-03-23T01:31:14.648Z,13.80
2019-03-23T01:33:42.151Z,12.23
2019-03-23T01:36:11.100Z,13.63
2019-03-23T01:38:38.615Z,11.80
2019-03-23T01:41:07.484Z,14.33
2019-03-23T01:43:35.557Z,13.00
2019-03-23T01:46:04.643Z,12.20
2019-03-23T01:48:32.717Z,13.67
2019-03-23T01:51:00.646Z,13.70
2019-03-23T01:53:28.216Z,13.47
2019-03-23T01:55:56.110Z,12.30
2019-03-23T01:58:24.188Z,11.97
2019-03-23T02:00:51.908Z,16.70
2019-03-23T02:03:19.567Z,13.77
2019-03-23T02:05:47.903Z,14.27
2019-03-23T02:08:16.058Z,13.80
2019-03-23T02:10:43.810Z,13.73
2019-03-23T02:13:12.283Z,13.20
2019-03-23T02:15:40.291Z,14.07
2019-03-23T02:18:08.785Z,14.33
2019-03-23T02:20:36.941Z,13.20
2019-03-23T02:23:04.677Z,13.57
2019-03-23T02:25:32.677Z,15.27
2019-03-23T02:28:00.455Z,14.87
2019-03-23T02:30:28.145Z,14.53
2019-03-23T02:32:55.740Z,15.90
2019-03-23T02:35:23.504Z,14.90
2019-03-23T02:37:51.616Z,14.20
2019-03-23T02:40:19.409Z,14.53
2019-03-23T02:42:47.142Z,12.47
2019-03-23T02:45:14.906Z,16.00
2019-03-23T02:47:42.404Z,11.93
2019-03-23T02:50:11.036Z,12.80
2019-03-23T02:52:39.001Z,13.73
2019-03-23T02:55:07.214Z,12.37
2019-03-23T02:57:35.004Z,12.97
2019-03-23T03:00:03.991Z,14.33
2019-03-23T03:02:33.645Z,13.40
2019-03-23T03:05:01.584Z,14.33
2019-03-23T03:07:41.137Z,12.27
2019-03-23T03:09:58.866Z,12.23
2019-03-23T03:12:26.613Z,13.30
2019-03-23T03:14:54.193Z,13.17
2019-03-23T03:17:21.993Z,13.23
2019-03-23T03:19:50.215Z,15.63
2019-03-23T03:22:17.767Z,13.83
2019-03-23T03:24:45.456Z,14.67
2019-03-23T03:27:13.504Z,13.07
2019-03-23T03:29:42.000Z,14.93
2019-03-23T03:32:10.643Z,14.80
2019-03-23T03:34:38.579Z,15.50
2019-03-23T03:37:06.613Z,13.27
2019-03-23T03:39:34.067Z,12.27
2019-03-23T03:42:02.409Z,15.50
2019-03-23T03:44:30.546Z,14.70
2019-03-23T03:46:58.747Z,14.60
2019-03-23T03:49:26.227Z,17.30
2019-03-23T03:51:53.756Z,14.63
2019-03-23T03:54:22.845Z,17.17
2019-03-23T03:56:50.271Z,14.83
2019-03-23T03:59:17.751Z,14.33
2019-03-23T04:01:46.341Z,17.33
2019-03-23T04:04:15.857Z,15.67
2019-03-23T04:06:43.310Z,17.03
2019-03-23T04:09:11.602Z,15.47
2019-03-23T04:11:40.172Z,16.00
2019-03-23T04:14:07.726Z,13.83
2019-03-23T04:16:36.341Z,15.20
2019-03-23T04:19:03.853Z,17.33
2019-03-23T04:21:31.748Z,17.93
2019-03-23T04:24:00.050Z,14.53
2019-03-23T04:26:28.300Z,15.63
2019-03-23T04:28:55.816Z,18.37
2019-03-23T04:31:23.248Z,14.40
2019-03-23T04:33:50.715Z,14.40
2019-03-23T04:36:18.648Z,15.17
2019-03-23T04:38:46.173Z,17.77
2019-03-23T04:41:15.118Z,16.17
2019-03-23T04:43:42.645Z,17.23
2019-03-23T04:46:11.270Z,17.00
2019-03-23T04:48:38.885Z,17.37
2019-03-23T04:51:06.485Z,17.83
2019-03-23T04:53:34.229Z,15.27
2019-03-23T04:56:01.790Z,17.60
2019-03-23T04:58:29.583Z,16.03
2019-03-23T05:00:58.271Z,13.83
2019-03-23T05:03:26.205Z,17.37
2019-03-23T05:05:53.671Z,14.70
2019-03-23T05:08:29.182Z,16.00
2019-03-23T05:10:52.068Z,15.13
2019-03-23T05:13:19.823Z,15.23
2019-03-23T05:15:47.919Z,15.20
2019-03-23T05:18:17.315Z,16.17
2019-03-23T05:20:45.235Z,16.00
2019-03-23T05:23:13.955Z,18.67
2019-03-23T05:25:42.579Z,16.23
2019-03-23T05:28:10.748Z,17.57
2019-03-23T05:30:38.755Z,16.70
2019-03-23T05:33:06.867Z,16.47
2019-03-23T05:35:35.628Z,16.97
2019-03-23T05:38:03.405Z,15.80
2019-03-23T05:40:30.882Z,16.90
2019-03-23T05:42:59.361Z,18.37
2019-03-23T05:45:28.018Z,18.57
2019-03-23T05:47:55.805Z,18.17
2019-03-23T05:50:23.441Z,17.10
2019-03-23T05:52:51.620Z,18.27
2019-03-23T05:55:20.407Z,17.53
2019-03-23T05:57:47.878Z,17.53
2019-03-23T06:00:19.586Z,22.20
2019-03-23T06:02:47.266Z,17.60
2019-03-23T06:05:16.465Z,17.87
2019-03-23T06:07:44.218Z,21.37
2019-03-23T06:10:13.274Z,18.37
2019-03-23T06:12:42.202Z,17.27
2019-03-23T06:15:10.421Z,18.70
2019-03-23T06:17:38.213Z,19.23
2019-03-23T06:20:06.635Z,20.57
2019-03-23T06:22:34.663Z,19.33
2019-03-23T06:25:02.614Z,18.93
2019-03-23T06:27:30.139Z,16.90
2019-03-23T06:29:57.706Z,19.43
2019-03-23T06:32:26.120Z,17.20
2019-03-23T06:34:53.991Z,21.27
2019-03-23T06:37:22.163Z,18.87
2019-03-23T06:39:50.173Z,20.77
2019-03-23T06:42:18.475Z,17.60
2019-03-23T06:44:46.224Z,17.13
2019-03-23T06:47:16.716Z,17.70
2019-03-23T06:49:44.464Z,17.17
2019-03-23T06:52:14.413Z,20.33
2019-03-23T06:54:42.475Z,17.77
2019-03-23T06:57:10.075Z,19.60
2019-03-23T06:59:37.612Z,17.97
2019-03-23T07:02:05.410Z,18.50
2019-03-23T07:04:33.375Z,18.13
2019-03-23T07:07:02.091Z,17.00
2019-03-23T07:09:29.531Z,19.97
2019-03-23T07:11:58.363Z,18.50
2019-03-23T07:14:26.419Z,19.27
2019-03-23T07:16:54.259Z,16.80
2019-03-23T07:19:21.914Z,18.43
2019-03-23T07:21:49.799Z,19.17
2019-03-23T07:24:19.158Z,18.43
2019-03-23T07:26:46.855Z,21.47
2019-03-23T07:29:16.358Z,27.47
2019-03-23T07:31:44.021Z,29.40
2019-03-23T07:34:11.885Z,21.03
2019-03-23T07:36:39.675Z,21.03
2019-03-23T07:39:07.286Z,18.93
2019-03-23T07:41:34.980Z,20.57
2019-03-23T07:44:02.763Z,18.87
2019-03-23T07:46:30.543Z,19.40
2019-03-23T07:48:59.307Z,21.23
2019-03-23T07:51:26.920Z,19.17
2019-03-23T07:53:54.392Z,20.03
2019-03-23T07:56:23.128Z,18.30
2019-03-23T07:58:51.095Z,18.17
2019-03-23T08:01:19.579Z,18.93
2019-03-23T08:03:47.505Z,17.73
2019-03-23T08:06:16.370Z,20.17
2019-03-23T08:08:45.948Z,20.33
2019-03-23T08:11:13.753Z,17.93
2019-03-23T08:13:42.349Z,18.03
2019-03-23T08:16:10.389Z,21.47
2019-03-23T08:18:38.486Z,18.73
2019-03-23T08:21:06.417Z,21.87
2019-03-23T08:23:37.808Z,19.23
2019-03-23T08:26:05.718Z,21.17
2019-03-23T08:28:33.591Z,22.80
2019-03-23T08:31:01.340Z,25.33
2019-03-23T08:33:29.039Z,24.13
2019-03-23T08:35:56.544Z,86.87
2019-03-23T08:38:24.554Z,27.73
2019-03-23T08:40:52.264Z,27.33
2019-03-23T08:43:20.488Z,23.80
2019-03-23T08:45:48.069Z,25.10
2019-03-23T08:48:16.270Z,23.77
2019-03-23T08:50:44.249Z,23.70
2019-03-23T08:53:11.687Z,26.10
2019-03-23T08:55:39.171Z,25.60
2019-03-23T08:58:06.756Z,29.57
2019-03-23T09:00:34.675Z,31.17
2019-03-23T09:03:03.830Z,26.57
2019-03-23T09:05:31.811Z,31.90
2019-03-23T09:07:59.416Z,33.50
2019-03-23T09:10:26.940Z,26.23
2019-03-23T09:12:54.792Z,25.43
2019-03-23T09:15:22.344Z,35.47
2019-03-23T09:17:50.027Z,39.50
2019-03-23T09:20:18.963Z,40.03
2019-03-23T09:22:46.731Z,40.37
2019-03-23T09:25:14.645Z,42.97
2019-03-23T09:27:42.551Z,40.60
2019-03-23T09:30:10.494Z,41.93
2019-03-23T09:32:38.156Z,44.03
2019-03-23T09:35:06.383Z,44.37
2019-03-23T09:37:38.094Z,44.63
2019-03-23T09:40:10.788Z,43.93
2019-03-23T09:42:34.128Z,45.27
2019-03-23T09:45:02.043Z,46.03
2019-03-23T09:47:29.872Z,45.33
2019-03-23T09:49:57.682Z,45.33
2019-03-23T09:52:25.150Z,47.90
2019-03-23T09:54:52.922Z,46.27
2019-03-23T09:57:20.694Z,48.47
2019-03-23T09:59:49.211Z,44.47
2019-03-23T10:02:17.897Z,46.67
2019-03-23T10:04:46.101Z,46.70
2019-03-23T10:07:13.528Z,49.23
2019-03-23T10:09:40.995Z,49.90
2019-03-23T10:12:08.719Z,44.93
2019-03-23T10:14:36.538Z,45.10
2019-03-23T10:17:04.289Z,46.83
2019-03-23T10:19:32.219Z,52.20
2019-03-23T10:21:59.667Z,49.97
2019-03-23T10:24:27.131Z,50.87
2019-03-23T10:26:55.071Z,51.20
2019-03-23T10:29:23.120Z,51.63
2019-03-23T10:31:50.663Z,50.70
2019-03-23T10:34:19.450Z,46.57
2019-03-23T10:36:47.495Z,49.40
2019-03-23T10:39:16.300Z,48.03
2019-03-23T10:41:44.359Z,49.80
2019-03-23T10:44:12.119Z,49.10
2019-03-23T10:46:40.581Z,48.30
2019-03-23T10:49:09.921Z,50.83
2019-03-23T10:51:37.987Z,49.93
2019-03-23T10:54:05.836Z,50.73
2019-03-23T10:56:34.731Z,47.73
2019-03-23T10:59:02.903Z,46.10
2019-03-23T11:01:30.783Z,49.70
2019-03-23T11:03:58.486Z,45.60
2019-03-23T11:06:26.591Z,47.63
2019-03-23T11:08:54.124Z,47.10
2019-03-23T11:11:22.174Z,47.80
2019-03-23T11:13:50.037Z,49.37
2019-03-23T11:16:18.416Z,51.40
2019-03-23T11:18:46.055Z,49.87
2019-03-23T11:21:13.513Z,47.13
2019-03-23T11:23:41.158Z,48.70
2019-03-23T11:26:08.837Z,45.93
2019-03-23T11:28:36.321Z,46.60
2019-03-23T11:31:03.856Z,47.63
2019-03-23T11:33:31.715Z,45.77
2019-03-23T11:36:00.007Z,47.07
2019-03-23T11:38:27.869Z,51.43
2019-03-23T11:40:55.831Z,51.20
2019-03-23T11:43:23.512Z,49.83
2019-03-23T11:45:51.045Z,45.30
2019-03-23T11:48:19.049Z,49.17
2019-03-23T11:50:46.776Z,48.43
2019-03-23T11:53:14.762Z,50.97
2019-03-23T11:55:42.302Z,53.60
2019-03-23T11:58:09.852Z,52.90
2019-03-23T12:00:37.909Z,49.43
2019-03-23T12:03:05.759Z,46.33
2019-03-23T12:05:33.683Z,49.77
2019-03-23T12:08:02.078Z,49.67
2019-03-23T12:10:30.407Z,44.10
2019-03-23T12:12:58.425Z,48.63
2019-03-23T12:15:26.787Z,48.10
2019-03-23T12:17:54.492Z,45.07
2019-03-23T12:20:22.943Z,47.27
2019-03-23T12:22:50.947Z,48.03
2019-03-23T12:25:19.214Z,47.13
2019-03-23T12:27:47.967Z,47.83
2019-03-23T12:30:16.053Z,46.27
2019-03-23T12:32:43.895Z,47.80
2019-03-23T12:35:11.453Z,46.53
2019-03-23T12:37:39.177Z,41.87
2019-03-23T12:40:07.377Z,46.00
2019-03-23T12:42:35.394Z,46.67
2019-03-23T12:45:04.215Z,47.63
2019-03-23T12:47:31.999Z,46.80
2019-03-23T12:49:59.535Z,49.23
2019-03-23T12:52:27.779Z,47.57
2019-03-23T12:54:55.379Z,44.80
2019-03-23T12:57:23.720Z,42.43
2019-03-23T12:59:51.991Z,46.17
2019-03-23T13:02:20.598Z,50.27
2019-03-23T13:04:48.484Z,43.40
2019-03-23T13:07:17.023Z,51.60
2019-03-23T13:09:45.099Z,45.30
2019-03-23T13:12:12.533Z,44.97
2019-03-23T13:14:41.895Z,42.77
2019-03-23T13:17:10.128Z,43.30
2019-03-23T13:19:37.893Z,42.50
2019-03-23T13:22:05.382Z,47.40
2019-03-23T13:24:32.831Z,45.90
2019-03-23T13:27:00.875Z,49.10
2019-03-23T13:29:28.811Z,42.83
2019-03-23T13:31:56.719Z,49.87
2019-03-23T13:34:24.987Z,48.47
2019-03-23T13:36:52.762Z,48.00
2019-03-23T13:39:20.737Z,41.87
2019-03-23T13:41:50.515Z,42.00
2019-03-23T13:44:18.364Z,45.67
2019-03-23T13:46:45.927Z,40.70
2019-03-23T13:49:14.159Z,46.37
2019-03-23T13:51:41.592Z,51.50
2019-03-23T13:54:09.082Z,50.00
2019-03-23T13:56:37.339Z,56.33
2019-03-23T13:59:05.207Z,54.53
2019-03-23T14:01:32.747Z,57.40
2019-03-23T14:04:01.344Z,67.27
2019-03-23T14:06:28.966Z,56.70
2019-03-23T14:08:56.869Z,85.93
2019-03-23T14:11:24.742Z,59.50
2019-03-23T14:13:52.384Z,57.03
2019-03-23T14:16:20.382Z,57.67
2019-03-23T14:18:48.354Z,57.63
2019-03-23T14:21:16.151Z,55.60
2019-03-23T14:23:43.963Z,56.47
2019-03-23T14:26:12.044Z,55.50
2019-03-23T14:28:39.824Z,55.37
2019-03-23T14:31:07.385Z,61.93
2019-03-23T14:33:35.165Z,53.47
2019-03-23T14:36:02.831Z,52.13
2019-03-23T14:38:30.706Z,56.43
2019-03-23T14:41:35.310Z,55.67
2019-03-23T14:44:03.190Z,94.63
2019-03-23T14:46:31.172Z,54.83
2019-03-23T14:49:01.786Z,60.67
2019-03-23T14:51:28.790Z,54.47
2019-03-23T14:53:56.675Z,53.10
2019-03-23T14:56:25.508Z,58.17
2019-03-23T14:58:53.315Z,54.87
2019-03-23T15:01:23.237Z,54.37
2019-03-23T15:03:51.079Z,58.60
2019-03-23T15:06:19.387Z,57.40
2019-03-23T15:08:47.464Z,60.63
2019-03-23T15:11:15.531Z,55.50
2019-03-23T15:13:43.131Z,55.37
2019-03-23T15:16:10.963Z,47.63
2019-03-23T15:18:38.824Z,57.17
2019-03-23T15:21:07.209Z,55.23
2019-03-23T15:23:35.071Z,55.43
2019-03-23T15:26:03.043Z,51.47
2019-03-23T15:28:32.114Z,54.00
2019-03-23T15:30:59.668Z,58.17
2019-03-23T15:33:28.187Z,57.67
2019-03-23T15:35:55.825Z,61.43
2019-03-23T15:38:25.788Z,61.30
2019-03-23T15:40:53.892Z,63.43
2019-03-23T15:43:21.692Z,58.10
2019-03-23T15:45:49.230Z,56.90
2019-03-23T15:48:16.923Z,60.53
2019-03-23T15:50:44.792Z,64.40
2019-03-23T15:53:13.039Z,60.23
2019-03-23T15:55:41.756Z,60.43
2019-03-23T15:58:10.853Z,60.60
2019-03-23T16:00:38.623Z,55.83
2019-03-23T16:03:06.423Z,64.87
2019-03-23T16:05:34.082Z,62.40
2019-03-23T16:08:02.428Z,61.47
2019-03-23T16:10:30.473Z,65.57
2019-03-23T16:12:58.039Z,62.87
2019-03-23T16:15:26.442Z,64.77
2019-03-23T16:17:54.797Z,65.10
2019-03-23T16:20:23.843Z,66.90
2019-03-23T16:22:51.965Z,70.37
2019-03-23T16:25:19.876Z,67.93
2019-03-23T16:27:47.634Z,67.70
2019-03-23T16:30:19.871Z,72.40
2019-03-23T16:32:47.817Z,75.93
2019-03-23T16:35:15.263Z,68.73
2019-03-23T16:37:43.479Z,72.17
2019-03-23T16:40:11.980Z,72.77
2019-03-23T16:42:45.287Z,74.73
2019-03-23T16:45:09.954Z,67.97
2019-03-23T16:47:37.916Z,75.80
2019-03-23T16:50:07.595Z,73.43
2019-03-23T16:52:36.336Z,74.93
2019-03-23T16:55:05.371Z,81.57
2019-03-23T16:57:33.666Z,81.83
2019-03-23T17:00:01.682Z,79.57
2019-03-23T17:02:29.544Z,80.43
2019-03-23T17:04:57.427Z,81.70
2019-03-23T17:07:25.716Z,82.07
2019-03-23T17:09:53.859Z,76.30
2019-03-23T17:12:23.032Z,81.07
2019-03-23T17:14:50.809Z,86.77
2019-03-23T17:17:18.567Z,85.43
2019-03-23T17:19:46.874Z,78.13
2019-03-23T17:22:14.467Z,84.97
2019-03-23T17:24:43.511Z,85.23
2019-03-23T17:27:11.292Z,88.23
2019-03-23T17:29:39.228Z,90.60
2019-03-23T17:32:06.920Z,80.53
2019-03-23T17:34:34.971Z,91.53
2019-03-23T17:37:02.713Z,90.13
2019-03-23T17:39:30.801Z,82.67
2019-03-23T17:41:58.537Z,87.43
2019-03-23T17:44:28.601Z,85.67
2019-03-23T17:46:56.234Z,86.07
2019-03-23T17:49:23.721Z,86.33
2019-03-23T17:51:51.876Z,91.53
2019-03-23T17:54:20.831Z,87.87
2019-03-23T17:56:48.505Z,84.93
2019-03-23T17:59:16.203Z,87.23
2019-03-23T18:01:43.976Z,84.43
2019-03-23T18:04:12.084Z,93.33
2019-03-23T18:06:40.218Z,90.20
2019-03-23T18:09:08.218Z,91.87
2019-03-23T18:11:35.896Z,89.73
2019-03-23T18:14:03.679Z,89.17
2019-03-23T18:16:31.647Z,90.67
2019-03-23T18:18:59.447Z,84.40
2019-03-23T18:21:28.616Z,89.30
2019-03-23T18:23:56.446Z,83.17
2019-03-23T18:26:24.517Z,89.57
2019-03-23T18:28:52.617Z,86.77
2019-03-23T18:31:21.506Z,88.27
2019-03-23T18:33:49.723Z,92.20
2019-03-23T18:36:17.583Z,89.93
2019-03-23T18:38:45.155Z,89.80
2019-03-23T18:41:13.527Z,89.53
2019-03-23T18:43:41.304Z,86.63
2019-03-23T18:46:09.303Z,87.27
2019-03-23T18:48:37.272Z,85.60
2019-03-23T18:51:05.145Z,87.33
2019-03-23T18:53:32.755Z,93.33
2019-03-23T18:56:01.181Z,92.47
2019-03-23T18:58:30.212Z,94.83
2019-03-23T19:00:58.348Z,91.73
2019-03-23T19:03:25.942Z,88.77
2019-03-23T19:05:54.359Z,90.77
2019-03-23T19:08:22.073Z,89.63
2019-03-23T19:10:50.394Z,92.07
2019-03-23T19:13:18.165Z,96.23
2019-03-23T19:15:45.615Z,97.70
2019-03-23T19:18:13.116Z,96.57
2019-03-23T19:20:40.802Z,96.37
2019-03-23T19:23:08.763Z,91.80
2019-03-23T19:25:36.859Z,94.83
2019-03-23T19:28:51.887Z,95.67
2019-03-23T19:31:21.958Z,96.40
2019-03-23T19:33:50.144Z,100.80
2019-03-23T19:36:17.953Z,98.83
2019-03-23T19:38:45.781Z,95.83
2019-03-23T19:41:13.951Z,96.97
2019-03-23T19:43:49.051Z,100.10
2019-03-23T19:46:10.857Z,92.37
2019-03-23T19:48:38.889Z,95.70
2019-03-23T19:51:06.935Z,96.87
2019-03-23T19:53:34.368Z,92.63
2019-03-23T19:56:02.326Z,92.50
2019-03-23T19:58:31.318Z,96.53
2019-03-23T20:00:59.157Z,101.57
2019-03-23T20:03:27.343Z,97.73
2019-03-23T20:05:55.175Z,90.90
2019-03-23T20:08:24.603Z,96.17
2019-03-23T20:10:53.899Z,102.27
2019-03-23T20:13:21.585Z,95.40
2019-03-23T20:15:49.439Z,100.87
2019-03-23T20:18:17.343Z,95.07
2019-03-23T20:20:45.375Z,96.73
2019-03-23T20:23:13.002Z,95.60
2019-03-23T20:25:41.197Z,104.10
2019-03-23T20:28:08.623Z,96.13
2019-03-23T20:30:37.096Z,93.03
2019-03-23T20:33:05.797Z,95.70
2019-03-23T20:35:33.822Z,99.03
2019-03-23T20:38:01.321Z,93.17
2019-03-23T20:40:30.234Z,95.97
2019-03-23T20:42:57.856Z,97.40
2019-03-23T20:45:28.050Z,94.10
2019-03-23T20:47:55.831Z,95.57
2019-03-23T20:50:23.485Z,92.47
2019-03-23T20:52:51.320Z,96.33
2019-03-23T20:55:29.658Z,99.57
2019-03-23T20:57:57.575Z,92.40
2019-03-23T21:00:25.123Z,93.60
2019-03-23T21:02:53.439Z,93.47
2019-03-23T21:05:21.024Z,89.73
2019-03-23T21:07:49.192Z,93.77
2019-03-23T21:10:17.019Z,91.53
2019-03-23T21:12:44.863Z,93.07
2019-03-23T21:15:13.028Z,93.33
2019-03-23T21:17:50.725Z,86.47
2019-03-23T21:20:11.079Z,90.33
2019-03-23T21:22:38.947Z,91.87
2019-03-23T21:25:07.535Z,83.23
2019-03-23T21:27:35.398Z,92.07
2019-03-23T21:30:04.531Z,87.83
2019-03-23T21:32:33.299Z,91.10
2019-03-23T21:35:01.469Z,88.73
2019-03-23T21:37:29.199Z,87.10
2019-03-23T21:39:57.367Z,78.83
2019-03-23T21:42:25.166Z,83.23
2019-03-23T21:44:52.760Z,81.13
2019-03-23T21:47:20.839Z,88.13
2019-03-23T21:49:48.439Z,89.73
2019-03-23T21:52:16.163Z,77.27
2019-03-23T21:54:43.765Z,78.37
2019-03-23T21:57:11.643Z,81.60
2019-03-23T21:59:39.426Z,76.70
2019-03-23T22:02:07.066Z,78.50
2019-03-23T22:04:36.296Z,75.43
2019-03-23T22:07:03.945Z,77.50
2019-03-23T22:09:33.328Z,75.23
2019-03-23T22:12:02.020Z,73.00
2019-03-23T22:14:40.990Z,71.03
2019-03-23T22:17:00.091Z,73.97
2019-03-23T22:19:27.869Z,73.63
2019-03-23T22:21:55.937Z,71.10
2019-03-23T22:24:24.096Z,70.77
2019-03-23T22:26:51.801Z,67.93
2019-03-23T22:29:20.389Z,69.43
2019-03-23T22:31:48.861Z,68.17
2019-03-23T22:34:16.603Z,66.40
2019-03-23T22:36:44.646Z,69.13
2019-03-23T22:39:12.550Z,71.07
2019-03-23T22:41:40.003Z,67.83
2019-03-23T22:44:07.863Z,68.27
2019-03-23T22:46:36.443Z,73.23
2019-03-23T22:49:04.217Z,65.33
2019-03-23T22:51:32.727Z,65.50
2019-03-23T22:54:00.967Z,62.23
2019-03-23T22:56:28.439Z,60.93
2019-03-23T22:58:56.707Z,59.20
2019-03-23T23:01:24.545Z,62.47
2019-03-23T23:03:52.491Z,57.60
2019-03-23T23:06:20.083Z,59.20
2019-03-23T23:08:47.768Z,52.87
2019-03-23T23:11:16.641Z,56.73
2019-03-23T23:13:44.138Z,55.57
2019-03-23T23:16:11.683Z,54.33
2019-03-23T23:18:39.575Z,55.93
2019-03-23T23:21:07.291Z,55.93
2019-03-23T23:23:35.717Z,55.20
2019-03-23T23:26:03.823Z,54.93
2019-03-23T23:28:31.658Z,50.10
2019-03-23T23:30:59.435Z,50.70
2019-03-23T23:33:27.020Z,51.40
2019-03-23T23:35:54.565Z,53.17
2019-03-23T23:38:22.026Z,48.83
2019-03-23T23:40:49.694Z,51.50
2019-03-23T23:43:17.196Z,53.93
2019-03-23T23:45:44.728Z,49.47
2019-03-23T23:48:12.652Z,51.10
2019-03-23T23:50:41.604Z,49.83
2019-03-23T23:53:09.279Z,46.37
2019-03-23T23:55:37.928Z,49.57
2019-03-23T23:58:06.272Z,47.73
